sensor_id;sensor_type;location;lat;lon;timestamp;temperature;humidity
702;DHT22;334;48.808;9.222;2023-04-24T00:00:54;14.70;1.00
702;DHT22;334;48.808;9.222;2023-04-24T00:01:58;14.70;1.00
702;DHT22;334;48.808;9.222;2023-04-24T00:03:00;14.70;1.00
702;DHT22;334;48.808;9.222;2023-04-24T00:04:02;14.70;1.00
702;DHT22;334;48.808;9.222;2023-04-24T00:05:07;14.70;1.00
702;DHT22;334;48.808;9.222;2023-04-24T00:06:09;14.70;1.00
702;DHT22;334;48.808;9.222;2023-04-24T00:07:11;14.70;1.00
702;DHT22;334;48.808;9.222;2023-04-24T00:08:14;14.70;1.00
702;DHT22;334;48.808;9.222;2023-04-24T00:09:16;14.70;1.00
702;DHT22;334;48.808;9.222;2023-04-24T00:10:18;14.70;1.00
702;DHT22;334;48.808;9.222;2023-04-24T00:11:20;14.70;1.00
702;DHT22;334;48.808;9.222;2023-04-24T00:12:22;14.70;1.00
702;DHT22;334;48.808;9.222;2023-04-24T00:13:24;14.70;1.00
702;DHT22;334;48.808;9.222;2023-04-24T00:14:26;14.80;1.00
702;DHT22;334;48.808;9.222;2023-04-24T00:15:28;14.70;1.00
702;DHT22;334;48.808;9.222;2023-04-24T00:16:30;14.70;1.00
702;DHT22;334;48.808;9.222;2023-04-24T00:17:32;14.70;1.00
702;DHT22;334;48.808;9.222;2023-04-24T00:18:34;14.70;1.00
702;DHT22;334;48.808;9.222;2023-04-24T00:19:36;14.60;1.00
702;DHT22;334;48.808;9.222;2023-04-24T00:20:38;14.60;1.00
702;DHT22;334;48.808;9.222;2023-04-24T00:21:40;14.60;1.00
702;DHT22;334;48.808;9.222;2023-04-24T00:22:43;14.60;1.00
702;DHT22;334;48.808;9.222;2023-04-24T00:23:45;14.60;1.00
702;DHT22;334;48.808;9.222;2023-04-24T00:24:47;14.60;1.00
702;DHT22;334;48.808;9.222;2023-04-24T00:25:48;14.60;1.00
702;DHT22;334;48.808;9.222;2023-04-24T00:26:50;14.80;1.00
702;DHT22;334;48.808;9.222;2023-04-24T00:27:52;14.60;1.00
702;DHT22;334;48.808;9.222;2023-04-24T00:28:54;14.60;1.00
702;DHT22;334;48.808;9.222;2023-04-24T00:29:56;14.60;1.00
702;DHT22;334;48.808;9.222;2023-04-24T00:30:58;14.60;1.00
702;DHT22;334;48.808;9.222;2023-04-24T00:32:00;14.60;1.00
702;DHT22;334;48.808;9.222;2023-04-24T00:33:02;14.50;1.00
702;DHT22;334;48.808;9.222;2023-04-24T00:34:04;14.50;1.00
702;DHT22;334;48.808;9.222;2023-04-24T00:35:07;14.50;1.00
702;DHT22;334;48.808;9.222;2023-04-24T00:36:10;14.50;1.00
702;DHT22;334;48.808;9.222;2023-04-24T00:37:12;14.50;1.00
702;DHT22;334;48.808;9.222;2023-04-24T00:38:14;14.50;1.00
702;DHT22;334;48.808;9.222;2023-04-24T00:39:16;14.50;1.00
702;DHT22;334;48.808;9.222;2023-04-24T00:40:18;14.40;1.00
702;DHT22;334;48.808;9.222;2023-04-24T00:41:21;14.40;1.00
702;DHT22;334;48.808;9.222;2023-04-24T00:42:24;14.40;1.00
702;DHT22;334;48.808;9.222;2023-04-24T00:43:26;14.40;1.00
702;DHT22;334;48.808;9.222;2023-04-24T00:44:28;14.40;1.00
702;DHT22;334;48.808;9.222;2023-04-24T00:45:31;14.40;1.00
702;DHT22;334;48.808;9.222;2023-04-24T00:46:33;14.40;1.00
702;DHT22;334;48.808;9.222;2023-04-24T00:47:38;14.40;1.00
702;DHT22;334;48.808;9.222;2023-04-24T00:48:40;14.40;1.00
702;DHT22;334;48.808;9.222;2023-04-24T00:49:42;14.40;1.00
702;DHT22;334;48.808;9.222;2023-04-24T00:50:45;14.40;1.00
702;DHT22;334;48.808;9.222;2023-04-24T00:51:47;14.40;1.00
702;DHT22;334;48.808;9.222;2023-04-24T00:52:50;14.40;1.00
702;DHT22;334;48.808;9.222;2023-04-24T00:53:52;14.40;1.00
702;DHT22;334;48.808;9.222;2023-04-24T00:54:54;14.40;1.00
702;DHT22;334;48.808;9.222;2023-04-24T00:55:57;14.40;1.00
702;DHT22;334;48.808;9.222;2023-04-24T00:56:59;14.40;1.00
702;DHT22;334;48.808;9.222;2023-04-24T00:58:01;14.40;1.00
702;DHT22;334;48.808;9.222;2023-04-24T00:59:04;14.50;1.00
702;DHT22;334;48.808;9.222;2023-04-24T01:00:06;14.40;1.00
702;DHT22;334;48.808;9.222;2023-04-24T01:01:11;14.40;1.00
702;DHT22;334;48.808;9.222;2023-04-24T01:02:13;14.40;1.00
702;DHT22;334;48.808;9.222;2023-04-24T01:03:17;14.50;1.00
702;DHT22;334;48.808;9.222;2023-04-24T01:04:20;14.50;1.00
702;DHT22;334;48.808;9.222;2023-04-24T01:05:22;14.50;1.00
702;DHT22;334;48.808;9.222;2023-04-24T01:06:28;14.50;1.00
702;DHT22;334;48.808;9.222;2023-04-24T01:07:30;14.50;1.00
702;DHT22;334;48.808;9.222;2023-04-24T01:08:32;14.50;1.00
702;DHT22;334;48.808;9.222;2023-04-24T01:09:40;14.50;1.00
702;DHT22;334;48.808;9.222;2023-04-24T01:10:46;14.50;1.00
702;DHT22;334;48.808;9.222;2023-04-24T01:11:49;14.50;1.00
702;DHT22;334;48.808;9.222;2023-04-24T01:12:51;14.50;1.00
702;DHT22;334;48.808;9.222;2023-04-24T01:13:54;14.60;1.00
702;DHT22;334;48.808;9.222;2023-04-24T01:14:56;14.80;1.00
702;DHT22;334;48.808;9.222;2023-04-24T01:15:59;14.60;1.00
702;DHT22;334;48.808;9.222;2023-04-24T01:17:02;14.60;1.00
702;DHT22;334;48.808;9.222;2023-04-24T01:18:04;14.60;1.00
702;DHT22;334;48.808;9.222;2023-04-24T01:19:06;14.60;1.00
702;DHT22;334;48.808;9.222;2023-04-24T01:20:09;14.60;1.00
702;DHT22;334;48.808;9.222;2023-04-24T01:21:14;14.60;1.00
702;DHT22;334;48.808;9.222;2023-04-24T01:22:19;14.60;1.00
702;DHT22;334;48.808;9.222;2023-04-24T01:23:22;14.60;1.00
702;DHT22;334;48.808;9.222;2023-04-24T01:24:24;14.60;1.00
702;DHT22;334;48.808;9.222;2023-04-24T01:25:27;14.60;1.00
702;DHT22;334;48.808;9.222;2023-04-24T01:26:29;14.60;1.00
702;DHT22;334;48.808;9.222;2023-04-24T01:27:32;14.60;1.00
702;DHT22;334;48.808;9.222;2023-04-24T01:28:34;14.60;1.00
702;DHT22;334;48.808;9.222;2023-04-24T01:29:37;14.60;1.00
702;DHT22;334;48.808;9.222;2023-04-24T01:30:40;14.60;1.00
702;DHT22;334;48.808;9.222;2023-04-24T01:31:42;14.60;1.00
702;DHT22;334;48.808;9.222;2023-04-24T01:32:45;14.60;1.00
702;DHT22;334;48.808;9.222;2023-04-24T01:33:48;14.60;1.00
702;DHT22;334;48.808;9.222;2023-04-24T01:34:50;14.70;1.00
702;DHT22;334;48.808;9.222;2023-04-24T01:35:52;14.70;1.00
702;DHT22;334;48.808;9.222;2023-04-24T01:36:55;14.60;1.00
702;DHT22;334;48.808;9.222;2023-04-24T01:37:58;14.60;1.00
702;DHT22;334;48.808;9.222;2023-04-24T01:39:00;14.60;1.00
702;DHT22;334;48.808;9.222;2023-04-24T01:40:07;14.60;1.00
702;DHT22;334;48.808;9.222;2023-04-24T01:41:10;14.60;1.00
702;DHT22;334;48.808;9.222;2023-04-24T01:42:12;14.60;1.00
702;DHT22;334;48.808;9.222;2023-04-24T01:43:15;14.60;1.00
702;DHT22;334;48.808;9.222;2023-04-24T01:44:17;14.60;1.00
702;DHT22;334;48.808;9.222;2023-04-24T01:45:19;14.60;1.00
702;DHT22;334;48.808;9.222;2023-04-24T01:46:21;14.60;1.00
702;DHT22;334;48.808;9.222;2023-04-24T01:47:24;14.50;1.00
702;DHT22;334;48.808;9.222;2023-04-24T01:48:27;14.50;1.00
702;DHT22;334;48.808;9.222;2023-04-24T01:49:29;14.50;1.00
702;DHT22;334;48.808;9.222;2023-04-24T01:50:32;14.50;1.00
702;DHT22;334;48.808;9.222;2023-04-24T01:51:34;14.50;1.00
702;DHT22;334;48.808;9.222;2023-04-24T01:52:37;14.50;1.00
702;DHT22;334;48.808;9.222;2023-04-24T01:53:40;14.50;1.00
702;DHT22;334;48.808;9.222;2023-04-24T01:54:42;14.50;1.00
702;DHT22;334;48.808;9.222;2023-04-24T01:55:43;14.50;1.00
702;DHT22;334;48.808;9.222;2023-04-24T01:56:46;14.40;1.00
702;DHT22;334;48.808;9.222;2023-04-24T01:57:49;14.40;1.00
702;DHT22;334;48.808;9.222;2023-04-24T01:58:52;14.50;1.00
702;DHT22;334;48.808;9.222;2023-04-24T01:59:55;14.40;1.00
702;DHT22;334;48.808;9.222;2023-04-24T02:00:57;14.50;1.00
702;DHT22;334;48.808;9.222;2023-04-24T02:02:00;14.50;1.00
702;DHT22;334;48.808;9.222;2023-04-24T02:03:02;14.50;1.00
702;DHT22;334;48.808;9.222;2023-04-24T02:04:05;14.50;1.00
702;DHT22;334;48.808;9.222;2023-04-24T02:05:09;14.50;1.00
702;DHT22;334;48.808;9.222;2023-04-24T02:06:11;14.50;1.00
702;DHT22;334;48.808;9.222;2023-04-24T02:07:14;14.50;1.00
702;DHT22;334;48.808;9.222;2023-04-24T02:08:16;14.50;1.00
702;DHT22;334;48.808;9.222;2023-04-24T02:09:18;14.50;1.00
702;DHT22;334;48.808;9.222;2023-04-24T02:10:20;14.50;1.00
702;DHT22;334;48.808;9.222;2023-04-24T02:11:22;14.50;1.00
702;DHT22;334;48.808;9.222;2023-04-24T02:12:24;14.60;1.00
702;DHT22;334;48.808;9.222;2023-04-24T02:13:26;14.60;1.00
702;DHT22;334;48.808;9.222;2023-04-24T02:14:28;14.60;1.00
702;DHT22;334;48.808;9.222;2023-04-24T02:15:30;14.50;1.00
702;DHT22;334;48.808;9.222;2023-04-24T02:16:31;14.50;1.00
702;DHT22;334;48.808;9.222;2023-04-24T02:17:34;14.50;1.00
702;DHT22;334;48.808;9.222;2023-04-24T02:18:38;14.50;1.00
702;DHT22;334;48.808;9.222;2023-04-24T02:19:40;14.50;1.00
702;DHT22;334;48.808;9.222;2023-04-24T02:20:42;14.50;1.00
702;DHT22;334;48.808;9.222;2023-04-24T02:21:44;14.50;1.00
702;DHT22;334;48.808;9.222;2023-04-24T02:22:46;14.50;1.00
702;DHT22;334;48.808;9.222;2023-04-24T02:23:48;14.50;1.00
702;DHT22;334;48.808;9.222;2023-04-24T02:24:49;14.50;1.00
702;DHT22;334;48.808;9.222;2023-04-24T02:25:51;14.50;1.00
702;DHT22;334;48.808;9.222;2023-04-24T02:26:54;14.50;1.00
702;DHT22;334;48.808;9.222;2023-04-24T02:27:57;14.50;1.00
702;DHT22;334;48.808;9.222;2023-04-24T02:28:58;14.50;1.00
702;DHT22;334;48.808;9.222;2023-04-24T02:30:01;14.50;1.00
702;DHT22;334;48.808;9.222;2023-04-24T02:31:03;14.50;1.00
702;DHT22;334;48.808;9.222;2023-04-24T02:32:06;14.50;1.00
702;DHT22;334;48.808;9.222;2023-04-24T02:33:09;14.50;1.00
702;DHT22;334;48.808;9.222;2023-04-24T02:34:10;14.50;1.00
702;DHT22;334;48.808;9.222;2023-04-24T02:35:13;14.40;1.00
702;DHT22;334;48.808;9.222;2023-04-24T02:36:17;14.50;1.00
702;DHT22;334;48.808;9.222;2023-04-24T02:37:22;14.40;1.00
702;DHT22;334;48.808;9.222;2023-04-24T02:38:24;14.40;1.00
702;DHT22;334;48.808;9.222;2023-04-24T02:39:26;14.50;1.00
702;DHT22;334;48.808;9.222;2023-04-24T02:40:27;14.50;1.00
702;DHT22;334;48.808;9.222;2023-04-24T02:41:29;14.50;1.00
702;DHT22;334;48.808;9.222;2023-04-24T02:42:33;14.40;1.00
702;DHT22;334;48.808;9.222;2023-04-24T02:43:36;14.40;1.00
702;DHT22;334;48.808;9.222;2023-04-24T02:44:38;14.40;1.00
702;DHT22;334;48.808;9.222;2023-04-24T02:45:39;14.40;1.00
702;DHT22;334;48.808;9.222;2023-04-24T02:46:43;14.40;1.00
702;DHT22;334;48.808;9.222;2023-04-24T02:47:45;14.40;1.00
702;DHT22;334;48.808;9.222;2023-04-24T02:48:47;14.40;1.00
702;DHT22;334;48.808;9.222;2023-04-24T02:49:50;14.30;1.00
702;DHT22;334;48.808;9.222;2023-04-24T02:50:52;14.30;1.00
702;DHT22;334;48.808;9.222;2023-04-24T02:51:54;14.30;1.00
702;DHT22;334;48.808;9.222;2023-04-24T02:52:56;14.20;1.00
702;DHT22;334;48.808;9.222;2023-04-24T02:53:58;14.20;1.00
702;DHT22;334;48.808;9.222;2023-04-24T02:55:00;14.10;1.00
702;DHT22;334;48.808;9.222;2023-04-24T02:56:02;14.10;1.00
702;DHT22;334;48.808;9.222;2023-04-24T02:57:03;14.10;1.00
702;DHT22;334;48.808;9.222;2023-04-24T02:58:06;14.20;1.00
702;DHT22;334;48.808;9.222;2023-04-24T02:59:07;14.10;1.00
702;DHT22;334;48.808;9.222;2023-04-24T03:00:10;14.10;1.00
702;DHT22;334;48.808;9.222;2023-04-24T03:01:15;14.10;1.00
702;DHT22;334;48.808;9.222;2023-04-24T03:02:20;14.10;1.00
702;DHT22;334;48.808;9.222;2023-04-24T03:03:24;14.20;1.00
702;DHT22;334;48.808;9.222;2023-04-24T03:04:28;14.20;1.00
702;DHT22;334;48.808;9.222;2023-04-24T03:05:31;14.20;1.00
702;DHT22;334;48.808;9.222;2023-04-24T03:06:32;14.10;1.00
702;DHT22;334;48.808;9.222;2023-04-24T03:07:37;14.10;1.00
702;DHT22;334;48.808;9.222;2023-04-24T03:08:39;14.10;1.00
702;DHT22;334;48.808;9.222;2023-04-24T03:09:41;14.10;1.00
702;DHT22;334;48.808;9.222;2023-04-24T03:10:43;14.10;1.00
702;DHT22;334;48.808;9.222;2023-04-24T03:11:48;14.10;1.00
702;DHT22;334;48.808;9.222;2023-04-24T03:12:51;14.10;1.00
702;DHT22;334;48.808;9.222;2023-04-24T03:13:54;14.10;1.00
702;DHT22;334;48.808;9.222;2023-04-24T03:14:56;14.10;1.00
702;DHT22;334;48.808;9.222;2023-04-24T03:15:58;14.10;1.00
702;DHT22;334;48.808;9.222;2023-04-24T03:17:06;14.10;1.00
702;DHT22;334;48.808;9.222;2023-04-24T03:18:10;14.10;1.00
702;DHT22;334;48.808;9.222;2023-04-24T03:19:12;14.10;1.00
702;DHT22;334;48.808;9.222;2023-04-24T03:20:14;14.00;1.00
702;DHT22;334;48.808;9.222;2023-04-24T03:21:16;14.00;1.00
702;DHT22;334;48.808;9.222;2023-04-24T03:22:18;14.00;1.00
702;DHT22;334;48.808;9.222;2023-04-24T03:23:20;14.00;1.00
702;DHT22;334;48.808;9.222;2023-04-24T03:24:22;14.00;1.00
702;DHT22;334;48.808;9.222;2023-04-24T03:25:24;14.00;1.00
702;DHT22;334;48.808;9.222;2023-04-24T03:26:26;13.90;1.00
702;DHT22;334;48.808;9.222;2023-04-24T03:27:28;14.00;1.00
702;DHT22;334;48.808;9.222;2023-04-24T03:28:30;14.00;1.00
702;DHT22;334;48.808;9.222;2023-04-24T03:29:32;14.00;1.00
702;DHT22;334;48.808;9.222;2023-04-24T03:30:34;14.00;1.00
702;DHT22;334;48.808;9.222;2023-04-24T03:31:36;14.00;1.00
702;DHT22;334;48.808;9.222;2023-04-24T03:32:39;14.00;1.00
702;DHT22;334;48.808;9.222;2023-04-24T03:33:41;14.00;1.00
702;DHT22;334;48.808;9.222;2023-04-24T03:34:43;13.90;1.00
702;DHT22;334;48.808;9.222;2023-04-24T03:35:45;13.90;1.00
702;DHT22;334;48.808;9.222;2023-04-24T03:36:47;13.90;1.00
702;DHT22;334;48.808;9.222;2023-04-24T03:37:49;13.80;1.00
702;DHT22;334;48.808;9.222;2023-04-24T03:38:51;13.90;1.00
702;DHT22;334;48.808;9.222;2023-04-24T03:39:53;13.90;1.00
702;DHT22;334;48.808;9.222;2023-04-24T03:40:54;13.90;1.00
702;DHT22;334;48.808;9.222;2023-04-24T03:41:56;13.80;1.00
702;DHT22;334;48.808;9.222;2023-04-24T03:42:58;13.80;1.00
702;DHT22;334;48.808;9.222;2023-04-24T03:44:00;13.90;1.00
702;DHT22;334;48.808;9.222;2023-04-24T03:45:02;13.90;1.00
702;DHT22;334;48.808;9.222;2023-04-24T03:46:04;13.80;1.00
702;DHT22;334;48.808;9.222;2023-04-24T03:47:07;13.90;1.00
702;DHT22;334;48.808;9.222;2023-04-24T03:48:09;13.90;1.00
702;DHT22;334;48.808;9.222;2023-04-24T03:49:11;13.80;1.00
702;DHT22;334;48.808;9.222;2023-04-24T03:50:13;13.80;1.00
702;DHT22;334;48.808;9.222;2023-04-24T03:51:15;13.80;1.00
702;DHT22;334;48.808;9.222;2023-04-24T03:52:16;13.80;1.00
702;DHT22;334;48.808;9.222;2023-04-24T03:53:18;13.80;1.00
702;DHT22;334;48.808;9.222;2023-04-24T03:54:21;13.80;1.00
702;DHT22;334;48.808;9.222;2023-04-24T03:55:25;13.80;1.00
702;DHT22;334;48.808;9.222;2023-04-24T03:56:28;13.80;1.00
702;DHT22;334;48.808;9.222;2023-04-24T03:57:30;13.80;1.00
702;DHT22;334;48.808;9.222;2023-04-24T03:58:32;13.80;1.00
702;DHT22;334;48.808;9.222;2023-04-24T03:59:34;13.90;1.00
702;DHT22;334;48.808;9.222;2023-04-24T04:00:36;13.90;1.00
702;DHT22;334;48.808;9.222;2023-04-24T04:01:39;13.90;1.00
702;DHT22;334;48.808;9.222;2023-04-24T04:02:43;13.90;1.00
702;DHT22;334;48.808;9.222;2023-04-24T04:03:47;13.90;1.00
702;DHT22;334;48.808;9.222;2023-04-24T04:04:52;13.90;1.00
702;DHT22;334;48.808;9.222;2023-04-24T04:05:55;13.90;1.00
702;DHT22;334;48.808;9.222;2023-04-24T04:06:56;13.90;1.00
702;DHT22;334;48.808;9.222;2023-04-24T04:08:02;13.90;1.00
702;DHT22;334;48.808;9.222;2023-04-24T04:09:04;13.90;1.00
702;DHT22;334;48.808;9.222;2023-04-24T04:10:06;13.90;1.00
702;DHT22;334;48.808;9.222;2023-04-24T04:11:09;13.90;1.00
702;DHT22;334;48.808;9.222;2023-04-24T04:12:11;14.00;1.00
702;DHT22;334;48.808;9.222;2023-04-24T04:13:14;13.90;1.00
702;DHT22;334;48.808;9.222;2023-04-24T04:14:16;14.00;1.00
702;DHT22;334;48.808;9.222;2023-04-24T04:15:18;14.00;1.00
702;DHT22;334;48.808;9.222;2023-04-24T04:16:20;14.00;1.00
702;DHT22;334;48.808;9.222;2023-04-24T04:17:24;14.00;1.00
702;DHT22;334;48.808;9.222;2023-04-24T04:18:26;14.00;1.00
702;DHT22;334;48.808;9.222;2023-04-24T04:19:28;14.00;1.00
702;DHT22;334;48.808;9.222;2023-04-24T04:20:30;14.00;1.00
702;DHT22;334;48.808;9.222;2023-04-24T04:21:32;14.00;1.00
702;DHT22;334;48.808;9.222;2023-04-24T04:22:34;14.00;1.00
702;DHT22;334;48.808;9.222;2023-04-24T04:23:38;14.00;1.00
702;DHT22;334;48.808;9.222;2023-04-24T04:24:42;14.10;1.00
702;DHT22;334;48.808;9.222;2023-04-24T04:25:44;14.10;1.00
702;DHT22;334;48.808;9.222;2023-04-24T04:26:46;14.10;1.00
702;DHT22;334;48.808;9.222;2023-04-24T04:27:48;14.00;1.00
702;DHT22;334;48.808;9.222;2023-04-24T04:28:51;14.00;1.00
702;DHT22;334;48.808;9.222;2023-04-24T04:29:53;14.00;1.00
702;DHT22;334;48.808;9.222;2023-04-24T04:30:56;13.90;1.00
702;DHT22;334;48.808;9.222;2023-04-24T04:31:59;13.80;1.00
702;DHT22;334;48.808;9.222;2023-04-24T04:33:03;13.60;1.00
702;DHT22;334;48.808;9.222;2023-04-24T04:34:05;13.60;1.00
702;DHT22;334;48.808;9.222;2023-04-24T04:35:07;13.60;1.00
702;DHT22;334;48.808;9.222;2023-04-24T04:36:09;13.60;1.00
702;DHT22;334;48.808;9.222;2023-04-24T04:37:11;13.60;1.00
702;DHT22;334;48.808;9.222;2023-04-24T04:38:14;13.50;1.00
702;DHT22;334;48.808;9.222;2023-04-24T04:39:16;13.60;1.00
702;DHT22;334;48.808;9.222;2023-04-24T04:40:20;13.50;1.00
702;DHT22;334;48.808;9.222;2023-04-24T04:41:22;13.50;1.00
702;DHT22;334;48.808;9.222;2023-04-24T04:42:24;13.50;1.00
702;DHT22;334;48.808;9.222;2023-04-24T04:43:26;13.50;1.00
702;DHT22;334;48.808;9.222;2023-04-24T04:44:28;13.50;1.00
702;DHT22;334;48.808;9.222;2023-04-24T04:45:32;13.50;1.00
702;DHT22;334;48.808;9.222;2023-04-24T04:46:36;13.50;1.00
702;DHT22;334;48.808;9.222;2023-04-24T04:47:38;13.40;1.00
702;DHT22;334;48.808;9.222;2023-04-24T04:48:41;13.50;1.00
702;DHT22;334;48.808;9.222;2023-04-24T04:49:43;13.40;1.00
702;DHT22;334;48.808;9.222;2023-04-24T04:50:45;13.40;1.00
702;DHT22;334;48.808;9.222;2023-04-24T04:51:47;13.40;1.00
702;DHT22;334;48.808;9.222;2023-04-24T04:52:50;13.40;1.00
702;DHT22;334;48.808;9.222;2023-04-24T04:53:51;13.30;1.00
702;DHT22;334;48.808;9.222;2023-04-24T04:54:53;13.30;1.00
702;DHT22;334;48.808;9.222;2023-04-24T04:55:55;13.30;1.00
702;DHT22;334;48.808;9.222;2023-04-24T04:56:57;13.30;1.00
702;DHT22;334;48.808;9.222;2023-04-24T04:57:59;13.30;1.00
702;DHT22;334;48.808;9.222;2023-04-24T04:59:01;13.30;1.00
702;DHT22;334;48.808;9.222;2023-04-24T05:00:04;13.40;1.00
702;DHT22;334;48.808;9.222;2023-04-24T05:01:07;13.40;1.00
702;DHT22;334;48.808;9.222;2023-04-24T05:02:10;13.30;1.00
702;DHT22;334;48.808;9.222;2023-04-24T05:03:13;13.30;1.00
702;DHT22;334;48.808;9.222;2023-04-24T05:04:22;13.30;1.00
702;DHT22;334;48.808;9.222;2023-04-24T05:05:24;13.30;1.00
702;DHT22;334;48.808;9.222;2023-04-24T05:06:25;13.30;1.00
702;DHT22;334;48.808;9.222;2023-04-24T05:07:27;13.30;1.00
702;DHT22;334;48.808;9.222;2023-04-24T05:08:30;13.30;1.00
702;DHT22;334;48.808;9.222;2023-04-24T05:09:31;13.20;1.00
702;DHT22;334;48.808;9.222;2023-04-24T05:10:34;13.20;1.00
702;DHT22;334;48.808;9.222;2023-04-24T05:11:36;13.20;1.00
702;DHT22;334;48.808;9.222;2023-04-24T05:12:38;13.20;1.00
702;DHT22;334;48.808;9.222;2023-04-24T05:13:40;13.20;1.00
702;DHT22;334;48.808;9.222;2023-04-24T05:14:42;13.20;1.00
702;DHT22;334;48.808;9.222;2023-04-24T05:15:44;13.20;1.00
702;DHT22;334;48.808;9.222;2023-04-24T05:16:46;13.20;1.00
702;DHT22;334;48.808;9.222;2023-04-24T05:17:48;13.20;1.00
702;DHT22;334;48.808;9.222;2023-04-24T05:18:50;13.20;1.00
702;DHT22;334;48.808;9.222;2023-04-24T05:19:51;13.30;1.00
702;DHT22;334;48.808;9.222;2023-04-24T05:20:53;13.30;1.00
702;DHT22;334;48.808;9.222;2023-04-24T05:21:55;13.30;1.00
702;DHT22;334;48.808;9.222;2023-04-24T05:22:57;13.30;1.00
702;DHT22;334;48.808;9.222;2023-04-24T05:23:58;13.30;1.00
702;DHT22;334;48.808;9.222;2023-04-24T05:25:01;13.20;1.00
702;DHT22;334;48.808;9.222;2023-04-24T05:26:06;13.20;1.00
702;DHT22;334;48.808;9.222;2023-04-24T05:27:08;13.20;1.00
702;DHT22;334;48.808;9.222;2023-04-24T05:28:10;13.10;1.00
702;DHT22;334;48.808;9.222;2023-04-24T05:29:11;13.10;1.00
702;DHT22;334;48.808;9.222;2023-04-24T05:30:13;13.10;1.00
702;DHT22;334;48.808;9.222;2023-04-24T05:31:15;13.10;1.00
702;DHT22;334;48.808;9.222;2023-04-24T05:32:19;13.00;1.00
702;DHT22;334;48.808;9.222;2023-04-24T05:33:21;13.00;1.00
702;DHT22;334;48.808;9.222;2023-04-24T05:34:23;13.00;1.00
702;DHT22;334;48.808;9.222;2023-04-24T05:35:25;13.00;1.00
702;DHT22;334;48.808;9.222;2023-04-24T05:36:27;13.00;1.00
702;DHT22;334;48.808;9.222;2023-04-24T05:37:29;13.00;1.00
702;DHT22;334;48.808;9.222;2023-04-24T05:38:32;13.00;1.00
702;DHT22;334;48.808;9.222;2023-04-24T05:39:34;12.90;1.00
702;DHT22;334;48.808;9.222;2023-04-24T05:40:37;12.90;1.00
702;DHT22;334;48.808;9.222;2023-04-24T05:41:38;12.90;1.00
702;DHT22;334;48.808;9.222;2023-04-24T05:42:40;13.00;1.00
702;DHT22;334;48.808;9.222;2023-04-24T05:43:42;13.00;1.00
702;DHT22;334;48.808;9.222;2023-04-24T05:44:44;13.00;1.00
702;DHT22;334;48.808;9.222;2023-04-24T05:45:45;13.00;1.00
702;DHT22;334;48.808;9.222;2023-04-24T05:46:47;13.00;1.00
702;DHT22;334;48.808;9.222;2023-04-24T05:47:49;13.00;1.00
702;DHT22;334;48.808;9.222;2023-04-24T05:48:53;13.00;1.00
702;DHT22;334;48.808;9.222;2023-04-24T05:49:55;13.00;1.00
702;DHT22;334;48.808;9.222;2023-04-24T05:50:57;13.00;1.00
702;DHT22;334;48.808;9.222;2023-04-24T05:51:59;13.00;1.00
702;DHT22;334;48.808;9.222;2023-04-24T05:53:01;13.00;1.00
702;DHT22;334;48.808;9.222;2023-04-24T05:54:04;13.10;1.00
702;DHT22;334;48.808;9.222;2023-04-24T05:55:05;13.10;1.00
702;DHT22;334;48.808;9.222;2023-04-24T05:56:08;13.10;1.00
702;DHT22;334;48.808;9.222;2023-04-24T05:57:11;13.20;1.00
702;DHT22;334;48.808;9.222;2023-04-24T05:58:13;13.20;1.00
702;DHT22;334;48.808;9.222;2023-04-24T05:59:15;13.30;1.00
702;DHT22;334;48.808;9.222;2023-04-24T06:00:17;13.30;1.00
702;DHT22;334;48.808;9.222;2023-04-24T06:01:21;13.30;1.00
702;DHT22;334;48.808;9.222;2023-04-24T06:02:23;13.30;1.00
702;DHT22;334;48.808;9.222;2023-04-24T06:03:25;13.30;1.00
702;DHT22;334;48.808;9.222;2023-04-24T06:04:26;13.30;1.00
702;DHT22;334;48.808;9.222;2023-04-24T06:05:29;13.40;1.00
702;DHT22;334;48.808;9.222;2023-04-24T06:06:32;13.30;1.00
702;DHT22;334;48.808;9.222;2023-04-24T06:07:34;13.40;1.00
702;DHT22;334;48.808;9.222;2023-04-24T06:08:36;13.40;1.00
702;DHT22;334;48.808;9.222;2023-04-24T06:09:37;13.40;1.00
702;DHT22;334;48.808;9.222;2023-04-24T06:10:39;13.40;1.00
702;DHT22;334;48.808;9.222;2023-04-24T06:11:41;13.40;1.00
702;DHT22;334;48.808;9.222;2023-04-24T06:12:44;13.40;1.00
702;DHT22;334;48.808;9.222;2023-04-24T06:13:46;13.50;1.00
702;DHT22;334;48.808;9.222;2023-04-24T06:14:48;13.50;1.00
702;DHT22;334;48.808;9.222;2023-04-24T06:15:51;13.50;1.00
702;DHT22;334;48.808;9.222;2023-04-24T06:16:54;13.50;1.00
702;DHT22;334;48.808;9.222;2023-04-24T06:17:56;13.50;1.00
702;DHT22;334;48.808;9.222;2023-04-24T06:18:59;13.50;1.00
702;DHT22;334;48.808;9.222;2023-04-24T06:20:01;13.50;1.00
702;DHT22;334;48.808;9.222;2023-04-24T06:21:04;13.50;1.00
702;DHT22;334;48.808;9.222;2023-04-24T06:22:06;13.60;1.00
702;DHT22;334;48.808;9.222;2023-04-24T06:23:11;13.60;1.00
702;DHT22;334;48.808;9.222;2023-04-24T06:24:14;13.60;1.00
702;DHT22;334;48.808;9.222;2023-04-24T06:25:17;13.70;1.00
702;DHT22;334;48.808;9.222;2023-04-24T06:26:20;13.70;1.00
702;DHT22;334;48.808;9.222;2023-04-24T06:27:22;13.70;1.00
702;DHT22;334;48.808;9.222;2023-04-24T06:28:24;13.80;1.00
702;DHT22;334;48.808;9.222;2023-04-24T06:29:26;13.80;1.00
702;DHT22;334;48.808;9.222;2023-04-24T06:30:27;13.90;1.00
702;DHT22;334;48.808;9.222;2023-04-24T06:31:29;13.90;1.00
702;DHT22;334;48.808;9.222;2023-04-24T06:32:33;13.90;1.00
702;DHT22;334;48.808;9.222;2023-04-24T06:33:35;14.00;1.00
702;DHT22;334;48.808;9.222;2023-04-24T06:34:36;14.00;1.00
702;DHT22;334;48.808;9.222;2023-04-24T06:35:38;14.10;1.00
702;DHT22;334;48.808;9.222;2023-04-24T06:36:40;14.10;1.00
702;DHT22;334;48.808;9.222;2023-04-24T06:37:43;14.20;1.00
702;DHT22;334;48.808;9.222;2023-04-24T06:38:44;14.30;1.00
702;DHT22;334;48.808;9.222;2023-04-24T06:39:46;14.30;1.00
702;DHT22;334;48.808;9.222;2023-04-24T06:40:48;14.30;1.00
702;DHT22;334;48.808;9.222;2023-04-24T06:41:50;14.40;1.00
702;DHT22;334;48.808;9.222;2023-04-24T06:42:52;14.40;1.00
702;DHT22;334;48.808;9.222;2023-04-24T06:43:54;14.50;1.00
702;DHT22;334;48.808;9.222;2023-04-24T06:44:56;14.40;1.00
702;DHT22;334;48.808;9.222;2023-04-24T06:45:58;14.50;1.00
702;DHT22;334;48.808;9.222;2023-04-24T06:47:00;14.50;1.00
702;DHT22;334;48.808;9.222;2023-04-24T06:48:02;14.60;1.00
702;DHT22;334;48.808;9.222;2023-04-24T06:49:04;14.40;1.00
702;DHT22;334;48.808;9.222;2023-04-24T06:50:07;14.40;1.00
702;DHT22;334;48.808;9.222;2023-04-24T06:51:10;14.30;1.00
702;DHT22;334;48.808;9.222;2023-04-24T06:52:11;14.30;1.00
702;DHT22;334;48.808;9.222;2023-04-24T06:53:13;14.50;1.00
702;DHT22;334;48.808;9.222;2023-04-24T06:54:16;14.20;1.00
702;DHT22;334;48.808;9.222;2023-04-24T06:55:17;14.20;1.00
702;DHT22;334;48.808;9.222;2023-04-24T06:56:20;14.30;1.00
702;DHT22;334;48.808;9.222;2023-04-24T06:57:23;14.20;1.00
702;DHT22;334;48.808;9.222;2023-04-24T06:58:25;14.30;1.00
702;DHT22;334;48.808;9.222;2023-04-24T06:59:27;14.40;1.00
702;DHT22;334;48.808;9.222;2023-04-24T07:00:29;14.30;1.00
702;DHT22;334;48.808;9.222;2023-04-24T07:01:31;14.20;1.00
702;DHT22;334;48.808;9.222;2023-04-24T07:02:33;14.20;1.00
702;DHT22;334;48.808;9.222;2023-04-24T07:03:36;14.20;1.00
702;DHT22;334;48.808;9.222;2023-04-24T07:04:39;14.20;1.00
702;DHT22;334;48.808;9.222;2023-04-24T07:05:42;14.20;1.00
702;DHT22;334;48.808;9.222;2023-04-24T07:06:45;14.30;1.00
702;DHT22;334;48.808;9.222;2023-04-24T07:07:47;14.40;1.00
702;DHT22;334;48.808;9.222;2023-04-24T07:08:51;14.30;1.00